createdAt,value
2018-12-18T00:01:56.203Z,4.90
2018-12-18T00:04:24.580Z,5.00
2018-12-18T00:06:52.977Z,5.00
2018-12-18T00:09:21.353Z,5.30
2018-12-18T00:11:49.746Z,5.90
2018-12-18T00:14:18.539Z,5.60
2018-12-18T00:16:47.200Z,5.40
2018-12-18T00:19:15.774Z,5.20
2018-12-18T00:21:44.255Z,5.20
2018-12-18T00:24:12.812Z,5.10
2018-12-18T00:26:41.240Z,4.80
2018-12-18T00:29:09.658Z,4.80
2018-12-18T00:31:38.104Z,4.70
2018-12-18T00:34:06.451Z,4.60
2018-12-18T00:36:34.826Z,4.60
2018-12-18T00:39:03.520Z,5.00
2018-12-18T00:41:32.319Z,4.90
2018-12-18T00:44:00.693Z,4.70
2018-12-18T00:46:29.038Z,5.10
2018-12-18T00:48:57.475Z,5.10
2018-12-18T00:51:25.803Z,5.20
2018-12-18T00:53:54.226Z,5.20
2018-12-18T00:56:22.553Z,5.40
2018-12-18T00:58:50.875Z,5.70
2018-12-18T01:01:19.204Z,5.80
2018-12-18T01:03:52.731Z,5.50
2018-12-18T01:06:18.279Z,5.30
2018-12-18T01:08:46.789Z,5.40
2018-12-18T01:11:15.116Z,5.80
2018-12-18T01:13:43.639Z,5.50
2018-12-18T01:16:12.032Z,5.20
2018-12-18T01:18:40.465Z,5.10
2018-12-18T01:21:09.027Z,4.90
2018-12-18T01:23:37.678Z,5.00
2018-12-18T01:26:06.034Z,5.20
2018-12-18T01:28:34.424Z,5.10
2018-12-18T01:31:03.175Z,5.40
2018-12-18T01:33:31.718Z,5.90
2018-12-18T01:36:00.098Z,6.10
2018-12-18T01:38:28.456Z,5.80
2018-12-18T01:40:56.855Z,5.50
2018-12-18T01:43:25.588Z,5.60
2018-12-18T01:45:53.940Z,5.70
2018-12-18T01:48:22.255Z,5.40
2018-12-18T01:50:50.628Z,5.10
2018-12-18T01:53:18.946Z,5.40
2018-12-18T01:55:47.482Z,5.80
2018-12-18T01:58:15.907Z,6.00
2018-12-18T02:00:44.270Z,6.00
2018-12-18T02:03:12.760Z,6.10
2018-12-18T02:05:41.097Z,6.00
2018-12-18T02:08:09.527Z,5.60
2018-12-18T02:10:39.210Z,5.30
2018-12-18T02:13:07.578Z,5.10
2018-12-18T02:15:35.925Z,5.20
2018-12-18T02:18:04.249Z,5.70
2018-12-18T02:20:32.582Z,6.00
2018-12-18T02:23:01.045Z,6.00
2018-12-18T02:25:29.384Z,6.10
2018-12-18T02:27:57.679Z,6.50
2018-12-18T02:30:26.296Z,6.70
2018-12-18T02:32:54.649Z,6.80
2018-12-18T02:35:23.175Z,6.40
2018-12-18T02:37:51.530Z,6.40
2018-12-18T02:40:19.947Z,6.20
2018-12-18T02:42:48.461Z,6.20
2018-12-18T02:45:16.864Z,6.20
2018-12-18T02:47:45.178Z,5.90
2018-12-18T02:50:13.735Z,5.70
2018-12-18T02:52:42.169Z,5.70
2018-12-18T02:55:10.714Z,5.30
2018-12-18T02:57:39.125Z,5.30
2018-12-18T03:00:08.476Z,5.60
2018-12-18T03:02:36.797Z,6.10
2018-12-18T03:05:05.624Z,6.10
2018-12-18T03:07:34.194Z,5.90
2018-12-18T03:10:02.617Z,5.90
2018-12-18T03:12:30.929Z,6.40
2018-12-18T03:14:59.390Z,6.50
2018-12-18T03:17:27.938Z,6.70
2018-12-18T03:19:56.500Z,6.90
2018-12-18T03:22:24.912Z,6.90
2018-12-18T03:24:53.630Z,6.90
2018-12-18T03:27:22.065Z,6.90
2018-12-18T03:29:50.433Z,6.50
2018-12-18T03:32:23.135Z,6.30
2018-12-18T03:34:51.593Z,6.50
2018-12-18T03:37:19.956Z,6.30
2018-12-18T03:39:49.185Z,6.70
2018-12-18T03:42:17.793Z,6.80
2018-12-18T03:44:46.435Z,6.80
2018-12-18T03:47:15.006Z,6.90
2018-12-18T03:49:43.589Z,6.60
2018-12-18T03:52:12.247Z,6.80
2018-12-18T03:54:40.926Z,6.50
2018-12-18T03:57:09.567Z,6.40
2018-12-18T03:59:38.212Z,6.30
2018-12-18T04:02:06.836Z,6.50
2018-12-18T04:04:35.933Z,6.50
2018-12-18T04:07:04.677Z,6.20
2018-12-18T04:09:33.294Z,6.30
2018-12-18T04:12:07.301Z,6.40
2018-12-18T04:14:36.008Z,6.80
2018-12-18T04:17:04.740Z,6.80
2018-12-18T04:22:12.342Z,6.60
2018-12-18T04:24:41.027Z,6.70
2018-12-18T04:27:09.814Z,6.80
2018-12-18T04:29:38.599Z,7.00
2018-12-18T04:32:07.490Z,6.90
2018-12-18T04:34:42.670Z,6.90
2018-12-18T04:37:07.217Z,6.50
2018-12-18T04:39:36.212Z,6.80
2018-12-18T04:42:04.897Z,6.40
2018-12-18T04:44:33.580Z,6.70
2018-12-18T04:47:02.458Z,6.30
2018-12-18T04:49:31.156Z,5.80
2018-12-18T04:51:59.942Z,5.40
2018-12-18T04:54:28.630Z,5.30
2018-12-18T04:56:57.277Z,5.10
2018-12-18T04:59:26.202Z,5.00
2018-12-18T05:01:54.890Z,4.90
2018-12-18T05:04:23.678Z,4.80
2018-12-18T05:06:52.465Z,4.70
2018-12-18T05:09:21.457Z,4.70
2018-12-18T05:11:50.349Z,4.60
2018-12-18T05:14:19.135Z,4.60
2018-12-18T05:16:48.230Z,4.50
2018-12-18T05:19:17.531Z,4.50
2018-12-18T05:21:46.253Z,4.40
2018-12-18T05:24:15.144Z,4.40
2018-12-18T05:26:43.893Z,4.40
2018-12-18T05:29:12.680Z,4.40
2018-12-18T05:31:41.529Z,4.40
2018-12-18T05:34:10.462Z,4.40
2018-12-18T05:36:39.248Z,4.40
2018-12-18T05:39:08.360Z,4.50
2018-12-18T05:41:38.054Z,4.50
2018-12-18T05:44:06.739Z,4.50
2018-12-18T05:46:35.424Z,4.60
2018-12-18T05:49:04.185Z,4.60
2018-12-18T05:51:32.905Z,4.60
2018-12-18T05:54:01.687Z,4.60
2018-12-18T05:56:30.984Z,4.60
2018-12-18T05:59:00.698Z,4.60
2018-12-18T06:01:29.994Z,4.60
2018-12-18T06:03:58.748Z,4.60
2018-12-18T06:06:27.672Z,4.50
2018-12-18T06:08:56.461Z,4.50
2018-12-18T06:11:25.966Z,4.60
2018-12-18T06:13:54.762Z,4.60
2018-12-18T06:16:23.642Z,4.60
2018-12-18T06:18:52.639Z,4.60
2018-12-18T06:21:21.406Z,4.60
2018-12-18T06:23:50.109Z,4.60
2018-12-18T06:26:18.897Z,4.60
2018-12-18T06:28:47.800Z,4.60
2018-12-18T06:31:16.720Z,4.60
2018-12-18T06:33:45.583Z,4.60
2018-12-18T06:36:14.327Z,4.60
2018-12-18T06:38:43.245Z,4.60
2018-12-18T06:41:13.162Z,4.70
2018-12-18T06:43:42.153Z,4.70
2018-12-18T06:46:11.246Z,4.70
2018-12-18T06:48:40.317Z,4.70
2018-12-18T06:51:09.137Z,4.60
2018-12-18T06:53:38.230Z,4.60
2018-12-18T06:56:07.019Z,4.60
2018-12-18T06:58:36.521Z,4.50
2018-12-18T07:01:05.822Z,4.50
2018-12-18T07:03:34.611Z,4.60
2018-12-18T07:06:03.802Z,4.60
2018-12-18T07:08:32.695Z,4.50
2018-12-18T07:11:01.686Z,4.60
2018-12-18T07:13:30.699Z,4.60
2018-12-18T07:15:59.781Z,4.60
2018-12-18T07:18:28.562Z,4.60
2018-12-18T07:20:57.453Z,4.60
2018-12-18T07:23:26.341Z,4.70
2018-12-18T07:25:55.130Z,4.70
2018-12-18T07:28:23.917Z,4.70
2018-12-18T07:30:52.704Z,4.70
2018-12-18T07:33:21.491Z,4.70
2018-12-18T07:35:50.280Z,4.70
2018-12-18T07:38:19.171Z,4.80
2018-12-18T07:40:48.265Z,4.80
2018-12-18T07:43:17.060Z,4.80
2018-12-18T07:45:45.947Z,4.90
2018-12-18T07:48:14.677Z,4.90
2018-12-18T07:50:43.623Z,4.90
2018-12-18T07:53:12.412Z,5.00
2018-12-18T07:55:41.200Z,5.00
2018-12-18T07:58:10.089Z,5.00
2018-12-18T08:00:39.082Z,5.10
2018-12-18T08:03:07.945Z,5.10
2018-12-18T08:05:37.682Z,5.10
2018-12-18T08:08:06.679Z,5.20
2018-12-18T08:10:35.461Z,5.20
2018-12-18T08:13:04.248Z,5.20
2018-12-18T08:15:33.348Z,5.20
2018-12-18T08:18:02.263Z,5.20
2018-12-18T08:20:31.327Z,5.20
2018-12-18T08:23:00.630Z,5.30
2018-12-18T08:25:29.414Z,5.30
2018-12-18T08:27:58.312Z,5.30
2018-12-18T08:30:27.094Z,5.30
2018-12-18T08:32:55.880Z,5.30
2018-12-18T08:35:24.668Z,5.30
2018-12-18T08:37:53.457Z,5.40
2018-12-18T08:40:22.355Z,5.40
2018-12-18T08:42:51.441Z,5.40
2018-12-18T08:45:20.331Z,5.40
2018-12-18T08:47:49.428Z,5.40
2018-12-18T08:50:18.625Z,5.40
2018-12-18T08:52:47.411Z,5.50
2018-12-18T08:55:16.512Z,5.50
2018-12-18T08:57:45.407Z,5.60
2018-12-18T09:00:14.973Z,5.60
2018-12-18T09:02:43.792Z,5.60
2018-12-18T09:05:12.579Z,5.60
2018-12-18T09:07:41.573Z,5.70
2018-12-18T09:10:10.806Z,5.70
2018-12-18T09:12:39.864Z,5.80
2018-12-18T09:15:14.080Z,5.80
2018-12-18T09:17:48.199Z,5.80
2018-12-18T09:20:17.081Z,5.90
2018-12-18T09:22:45.974Z,5.90
2018-12-18T09:25:14.760Z,5.90
2018-12-18T09:27:43.546Z,6.00
2018-12-18T09:30:12.540Z,6.00
2018-12-18T09:32:41.329Z,6.00
2018-12-18T09:35:10.424Z,5.90
2018-12-18T09:37:39.213Z,6.00
2018-12-18T09:40:10.455Z,6.10
2018-12-18T09:42:44.978Z,6.10
2018-12-18T09:45:14.277Z,6.20
2018-12-18T09:47:43.082Z,6.20
2018-12-18T09:50:11.854Z,6.30
2018-12-18T09:52:40.846Z,6.20
2018-12-18T09:55:09.636Z,6.30
2018-12-18T09:57:43.851Z,6.20
2018-12-18T10:00:12.841Z,6.20
2018-12-18T10:02:41.629Z,6.10
2018-12-18T10:05:10.625Z,6.10
2018-12-18T10:07:39.511Z,6.10
2018-12-18T10:10:08.711Z,6.10
2018-12-18T10:12:42.561Z,6.00
2018-12-18T10:15:11.308Z,6.10
2018-12-18T10:17:40.193Z,6.20
2018-12-18T10:20:09.552Z,6.20
2018-12-18T10:22:38.696Z,6.20
2018-12-18T10:25:07.684Z,6.30
2018-12-18T10:27:36.582Z,6.20
2018-12-18T10:30:05.671Z,6.30
2018-12-18T10:32:34.466Z,6.30
2018-12-18T10:35:04.063Z,6.30
2018-12-18T10:37:32.964Z,6.30
2018-12-18T10:40:01.748Z,6.30
2018-12-18T10:42:30.633Z,6.30
2018-12-18T10:44:59.525Z,6.40
2018-12-18T10:47:28.311Z,6.50
2018-12-18T10:49:57.249Z,6.50
2018-12-18T10:52:26.312Z,6.50
2018-12-18T10:54:55.288Z,6.50
2018-12-18T10:57:24.191Z,6.50
2018-12-18T10:59:53.168Z,6.50
2018-12-18T11:02:21.959Z,6.40
2018-12-18T11:04:50.815Z,6.50
2018-12-18T11:07:19.724Z,6.50
2018-12-18T11:09:48.729Z,6.50
2018-12-18T11:12:21.715Z,6.60
2018-12-18T11:14:50.506Z,6.60
2018-12-18T11:17:19.292Z,6.60
2018-12-18T11:19:49.524Z,6.60
2018-12-18T11:22:18.608Z,6.70
2018-12-18T11:24:47.601Z,6.80
2018-12-18T11:27:16.390Z,6.70
2018-12-18T11:29:45.179Z,6.80
2018-12-18T11:32:14.279Z,6.90
2018-12-18T11:34:43.881Z,7.00
2018-12-18T11:37:12.884Z,7.00
2018-12-18T11:39:41.961Z,7.10
2018-12-18T11:42:10.858Z,7.10
2018-12-18T11:44:39.856Z,7.30
2018-12-18T11:47:10.174Z,7.30
2018-12-18T11:49:39.170Z,7.30
2018-12-18T11:52:07.954Z,7.20
2018-12-18T11:54:36.781Z,7.20
2018-12-18T11:57:05.473Z,7.10
2018-12-18T11:59:34.626Z,7.10
2018-12-18T12:02:03.515Z,7.10
2018-12-18T12:04:32.413Z,7.20
2018-12-18T12:07:01.239Z,7.20
2018-12-18T12:09:30.392Z,7.30
2018-12-18T12:11:59.484Z,7.50
2018-12-18T12:14:28.272Z,7.60
2018-12-18T12:16:57.143Z,7.60
2018-12-18T12:19:26.782Z,7.60
2018-12-18T12:21:55.560Z,7.60
2018-12-18T12:24:24.446Z,7.60
2018-12-18T12:26:57.536Z,7.50
2018-12-18T12:29:26.425Z,7.40
2018-12-18T12:31:55.213Z,7.30
2018-12-18T12:34:24.001Z,7.10
2018-12-18T12:36:52.891Z,7.10
2018-12-18T12:39:21.679Z,7.00
2018-12-18T12:41:50.569Z,7.00
2018-12-18T12:44:19.357Z,7.00
2018-12-18T12:46:48.148Z,7.00
2018-12-18T12:49:16.934Z,7.00
2018-12-18T12:51:45.622Z,7.10
2018-12-18T12:54:14.333Z,7.20
2018-12-18T12:56:43.192Z,7.30
2018-12-18T12:59:12.185Z,7.40
2018-12-18T13:01:42.337Z,7.50
2018-12-18T13:04:11.399Z,7.40
2018-12-18T13:06:40.394Z,7.30
2018-12-18T13:09:09.529Z,7.30
2018-12-18T13:11:38.274Z,7.10
2018-12-18T13:14:07.063Z,7.10
2018-12-18T13:16:35.955Z,7.00
2018-12-18T13:19:04.739Z,7.00
2018-12-18T13:21:33.937Z,7.10
2018-12-18T13:24:02.622Z,7.20
2018-12-18T13:26:32.126Z,7.30
2018-12-18T13:29:01.223Z,7.30
2018-12-18T13:31:30.214Z,7.30
2018-12-18T13:33:59.001Z,7.30
2018-12-18T13:36:27.790Z,7.30
2018-12-18T13:38:56.476Z,7.30
2018-12-18T13:41:25.366Z,7.30
2018-12-18T13:43:54.154Z,7.30
2018-12-18T13:46:22.942Z,7.30
2018-12-18T13:48:51.835Z,7.20
2018-12-18T13:51:20.520Z,7.10
2018-12-18T13:53:49.311Z,6.90
2018-12-18T13:56:18.099Z,6.80
2018-12-18T13:58:46.881Z,6.80
2018-12-18T14:01:15.569Z,6.70
2018-12-18T14:03:44.457Z,6.70
2018-12-18T14:06:13.141Z,6.70
2018-12-18T14:08:42.031Z,6.70
2018-12-18T14:11:10.906Z,6.60
2018-12-18T14:13:39.709Z,6.50
2018-12-18T14:16:08.599Z,6.40
2018-12-18T14:18:37.797Z,6.30
2018-12-18T14:21:06.791Z,6.30
2018-12-18T14:23:35.625Z,6.20
2018-12-18T14:26:04.478Z,6.10
2018-12-18T14:28:33.255Z,6.10
2018-12-18T14:31:02.349Z,6.00
2018-12-18T14:33:31.549Z,5.90
2018-12-18T14:36:00.539Z,5.80
2018-12-18T14:38:29.258Z,5.80
2018-12-18T14:40:58.219Z,5.70
2018-12-18T14:43:27.414Z,5.60
2018-12-18T14:45:56.306Z,5.50
2018-12-18T14:48:25.336Z,5.50
2018-12-18T14:50:54.195Z,5.60
2018-12-18T14:53:22.976Z,5.70
2018-12-18T14:55:51.771Z,5.80
2018-12-18T14:58:20.553Z,5.80
2018-12-18T15:00:49.240Z,5.90
2018-12-18T15:03:18.027Z,5.90
2018-12-18T15:05:46.711Z,5.90
2018-12-18T15:08:15.607Z,5.90
2018-12-18T15:10:44.594Z,5.80
2018-12-18T15:13:13.484Z,5.70
2018-12-18T15:15:42.477Z,5.50
2018-12-18T15:18:11.776Z,5.40
2018-12-18T15:20:40.974Z,5.30
2018-12-18T15:23:09.967Z,5.20
2018-12-18T15:25:38.755Z,5.10
2018-12-18T15:28:07.640Z,5.10
2018-12-18T15:30:36.538Z,5.00
2018-12-18T15:33:05.437Z,4.90
2018-12-18T15:35:34.522Z,4.90
2018-12-18T15:38:03.617Z,4.80
2018-12-18T15:40:33.739Z,4.80
2018-12-18T15:43:02.625Z,4.80
2018-12-18T15:45:31.423Z,4.80
2018-12-18T15:48:00.200Z,4.80
2018-12-18T15:50:29.093Z,4.70
2018-12-18T15:52:57.981Z,4.70
2018-12-18T15:55:26.770Z,4.60
2018-12-18T15:57:55.592Z,4.50
2018-12-18T16:00:24.547Z,4.40
2018-12-18T16:02:53.441Z,4.30
2018-12-18T16:05:22.268Z,4.20
2018-12-18T16:07:51.120Z,4.30
2018-12-18T16:10:20.063Z,4.20
2018-12-18T16:12:49.102Z,4.20
2018-12-18T16:15:19.434Z,4.20
2018-12-18T16:17:49.854Z,4.20
2018-12-18T16:20:18.987Z,4.10
2018-12-18T16:22:48.865Z,4.10
2018-12-18T16:25:18.100Z,4.10
2018-12-18T16:27:46.850Z,4.10
2018-12-18T16:30:15.740Z,4.20
2018-12-18T16:32:44.729Z,4.30
2018-12-18T16:35:14.854Z,4.30
2018-12-18T16:37:43.843Z,4.30
2018-12-18T16:40:12.732Z,4.20
2018-12-18T16:42:41.837Z,4.10
2018-12-18T16:45:10.617Z,4.10
2018-12-18T16:47:39.403Z,4.00
2018-12-18T16:50:08.496Z,4.00
2018-12-18T16:52:38.032Z,3.90
2018-12-18T16:55:07.096Z,3.80
2018-12-18T16:57:35.884Z,3.90
2018-12-18T17:00:06.049Z,3.90
2018-12-18T17:02:34.998Z,3.90
2018-12-18T17:05:03.989Z,3.80
2018-12-18T17:07:32.776Z,3.90
2018-12-18T17:10:01.895Z,3.90
2018-12-18T17:12:30.771Z,3.90
2018-12-18T17:14:59.651Z,3.90
2018-12-18T17:17:28.543Z,3.90
2018-12-18T17:19:57.432Z,3.80
2018-12-18T17:22:26.118Z,3.90
2018-12-18T17:24:54.907Z,3.90
2018-12-18T17:27:23.694Z,3.90
2018-12-18T17:29:52.513Z,3.80
2018-12-18T17:32:21.269Z,3.80
2018-12-18T17:34:50.160Z,3.80
2018-12-18T17:37:19.109Z,3.70
2018-12-18T17:39:48.350Z,3.70
2018-12-18T17:42:17.243Z,3.70
2018-12-18T17:44:46.044Z,3.70
2018-12-18T17:47:14.918Z,3.70
2018-12-18T17:49:43.609Z,3.70
2018-12-18T17:52:12.493Z,3.70
2018-12-18T17:54:41.387Z,3.60
2018-12-18T17:57:10.376Z,3.60
2018-12-18T17:59:39.410Z,3.60
2018-12-18T18:02:09.015Z,3.60
2018-12-18T18:04:39.054Z,3.60
2018-12-18T18:07:07.887Z,3.60
2018-12-18T18:09:36.812Z,3.60
2018-12-18T18:12:05.766Z,3.60
2018-12-18T18:14:36.153Z,3.60
2018-12-18T18:17:05.499Z,3.60
2018-12-18T18:19:34.282Z,3.70
2018-12-18T18:22:02.964Z,3.70
2018-12-18T18:24:32.571Z,3.60
2018-12-18T18:27:01.461Z,3.60
2018-12-18T18:29:30.254Z,3.50
2018-12-18T18:31:59.156Z,3.50
2018-12-18T18:34:28.234Z,3.50
2018-12-18T18:36:57.124Z,3.50
2018-12-18T18:39:25.914Z,3.50
2018-12-18T18:41:54.701Z,3.50
2018-12-18T18:44:23.694Z,3.40
2018-12-18T18:46:52.787Z,3.40
2018-12-18T18:49:22.190Z,3.40
2018-12-18T18:51:51.182Z,3.40
2018-12-18T18:54:19.970Z,3.40
2018-12-18T18:56:48.862Z,3.40
2018-12-18T18:59:17.648Z,3.40
2018-12-18T19:01:46.435Z,3.30
2018-12-18T19:04:15.429Z,3.30
2018-12-18T19:06:44.629Z,3.30
2018-12-18T19:09:13.417Z,3.30
2018-12-18T19:11:42.307Z,3.40
2018-12-18T19:14:11.059Z,3.30
2018-12-18T19:16:39.778Z,3.40
2018-12-18T19:19:08.731Z,3.40
2018-12-18T19:21:39.003Z,3.40
2018-12-18T19:24:07.959Z,3.30
2018-12-18T19:26:37.384Z,3.30
2018-12-18T19:29:06.083Z,3.30
2018-12-18T19:31:34.959Z,3.20
2018-12-18T19:34:03.956Z,3.20
2018-12-18T19:36:33.669Z,3.20
2018-12-18T19:39:04.811Z,3.20
2018-12-18T19:41:33.696Z,3.10
2018-12-18T19:44:02.491Z,3.20
2018-12-18T19:46:31.270Z,3.20
2018-12-18T19:49:00.059Z,3.20
2018-12-18T19:51:29.052Z,3.10
2018-12-18T19:53:57.843Z,3.10
2018-12-18T19:56:26.525Z,3.10
2018-12-18T19:58:55.314Z,3.10
2018-12-18T20:01:24.202Z,3.10
2018-12-18T20:03:53.093Z,3.00
2018-12-18T20:06:21.886Z,3.00
2018-12-18T20:08:50.773Z,3.00
2018-12-18T20:11:19.558Z,3.00
2018-12-18T20:13:48.352Z,2.90
2018-12-18T20:16:17.483Z,2.90
2018-12-18T20:18:46.334Z,2.90
2018-12-18T20:21:15.119Z,2.80
2018-12-18T20:23:44.010Z,2.80
2018-12-18T20:26:13.112Z,2.90
2018-12-18T20:28:41.790Z,2.80
2018-12-18T20:31:10.578Z,2.80
2018-12-18T20:33:39.570Z,2.80
2018-12-18T20:36:08.665Z,2.70
2018-12-18T20:38:37.350Z,2.70
2018-12-18T20:41:06.139Z,2.70
2018-12-18T20:43:34.847Z,2.70
2018-12-18T20:46:04.125Z,2.60
2018-12-18T20:48:32.817Z,2.70
2018-12-18T20:51:01.605Z,2.80
2018-12-18T20:53:30.393Z,2.70
2018-12-18T20:55:59.277Z,2.60
2018-12-18T20:58:28.069Z,2.50
2018-12-18T21:00:57.368Z,2.50
2018-12-18T21:03:26.201Z,2.40
2018-12-18T21:05:55.247Z,2.40
2018-12-18T21:08:23.935Z,2.50
2018-12-18T21:10:52.723Z,2.40
2018-12-18T21:13:28.064Z,2.40
2018-12-18T21:15:56.989Z,2.30
2018-12-18T21:18:25.844Z,2.30
2018-12-18T21:20:54.632Z,2.30
2018-12-18T21:23:24.008Z,2.30
2018-12-18T21:25:52.789Z,2.20
2018-12-18T21:28:21.637Z,2.20
2018-12-18T21:30:50.531Z,2.20
2018-12-18T21:33:19.334Z,2.20
2018-12-18T21:35:48.104Z,2.20
2018-12-18T21:38:16.790Z,2.20
2018-12-18T21:40:46.093Z,2.10
2018-12-18T21:43:14.777Z,2.10
2018-12-18T21:45:43.664Z,2.10
2018-12-18T21:48:12.456Z,2.10
2018-12-18T21:50:41.241Z,2.00
2018-12-18T21:53:10.029Z,2.00
2018-12-18T21:55:38.787Z,2.00
2018-12-18T21:58:07.669Z,1.90
2018-12-18T22:00:36.598Z,1.90
2018-12-18T22:03:06.189Z,1.90
2018-12-18T22:05:35.300Z,1.90
2018-12-18T22:08:04.206Z,1.90
2018-12-18T22:10:33.024Z,1.90
2018-12-18T22:13:01.807Z,1.80
2018-12-18T22:15:30.654Z,1.70
2018-12-18T22:17:59.647Z,1.70
2018-12-18T22:20:28.333Z,1.70
2018-12-18T22:22:57.635Z,1.70
2018-12-18T22:25:26.318Z,1.80
2018-12-18T22:27:55.541Z,2.60
2018-12-18T22:30:24.615Z,3.30
2018-12-18T22:32:53.501Z,3.60
2018-12-18T22:35:29.457Z,3.60
2018-12-18T22:37:58.244Z,4.10
2018-12-18T22:40:27.032Z,3.80
2018-12-18T22:42:55.822Z,4.50
2018-12-18T22:45:24.611Z,4.00
2018-12-18T22:47:53.703Z,4.40
2018-12-18T22:50:22.592Z,4.30
2018-12-18T22:52:51.379Z,4.10
2018-12-18T22:55:20.167Z,3.70
2018-12-18T22:57:49.058Z,3.90
2018-12-18T23:00:23.068Z,4.10
2018-12-18T23:02:51.943Z,4.00
2018-12-18T23:05:20.746Z,3.90
2018-12-18T23:07:49.639Z,3.50
2018-12-18T23:10:18.425Z,3.40
2018-12-18T23:12:47.212Z,3.30
2018-12-18T23:15:16.102Z,3.30
2018-12-18T23:17:44.891Z,3.10
2018-12-18T23:20:20.113Z,3.40
2018-12-18T23:22:49.227Z,3.40
2018-12-18T23:25:18.010Z,3.20
2018-12-18T23:27:46.905Z,3.30
2018-12-18T23:30:15.694Z,3.70
2018-12-18T23:32:44.477Z,3.90
2018-12-18T23:35:13.439Z,3.80
2018-12-18T23:37:42.667Z,3.50
2018-12-18T23:40:11.457Z,3.50
2018-12-18T23:42:40.345Z,3.20
2018-12-18T23:45:09.131Z,3.10
2018-12-18T23:47:38.125Z,3.70
2018-12-18T23:50:06.913Z,3.70
2018-12-18T23:52:35.701Z,3.60
2018-12-18T23:55:04.693Z,3.30
2018-12-18T23:57:33.480Z,3.10
